sensor_id;sensor_type;location;lat;lon;timestamp;pressure;altitude;pressure_sealevel;temperature;humidity
59787;BME280;45672;51.612;5.536;2023-03-14T00:02:05;98770.38;;;11.44;93.15
59787;BME280;45672;51.612;5.536;2023-03-14T00:04:30;98780.44;;;11.42;93.00
59787;BME280;45672;51.612;5.536;2023-03-14T00:06:56;98785.97;;;11.40;91.22
59787;BME280;45672;51.612;5.536;2023-03-14T00:09:21;98788.63;;;11.40;90.51
59787;BME280;45672;51.612;5.536;2023-03-14T00:11:46;98773.91;;;11.31;90.19
59787;BME280;45672;51.612;5.536;2023-03-14T00:14:12;98781.66;;;11.39;89.23
59787;BME280;45672;51.612;5.536;2023-03-14T00:16:37;98766.94;;;11.36;88.28
59787;BME280;45672;51.612;5.536;2023-03-14T00:19:02;98771.03;;;11.32;88.16
59787;BME280;45672;51.612;5.536;2023-03-14T00:21:28;98774.34;;;11.28;87.58
59787;BME280;45672;51.612;5.536;2023-03-14T00:23:53;98772.09;;;11.25;87.51
59787;BME280;45672;51.612;5.536;2023-03-14T00:26:20;98782.56;;;11.19;87.67
59787;BME280;45672;51.612;5.536;2023-03-14T00:28:46;98786.22;;;11.18;86.42
59787;BME280;45672;51.612;5.536;2023-03-14T00:31:14;98785.03;;;11.14;87.05
59787;BME280;45672;51.612;5.536;2023-03-14T00:33:41;98797.72;;;11.12;86.50
59787;BME280;45672;51.612;5.536;2023-03-14T00:36:09;98799.16;;;11.08;86.40
59787;BME280;45672;51.612;5.536;2023-03-14T00:38:36;98803.69;;;11.01;87.04
59787;BME280;45672;51.612;5.536;2023-03-14T00:41:09;98810.44;;;10.97;86.46
59787;BME280;45672;51.612;5.536;2023-03-14T00:43:35;98808.41;;;10.92;85.87
59787;BME280;45672;51.612;5.536;2023-03-14T00:46:01;98806.38;;;10.88;85.29
59787;BME280;45672;51.612;5.536;2023-03-14T00:48:27;98812.13;;;10.84;85.31
59787;BME280;45672;51.612;5.536;2023-03-14T00:50:52;98811.09;;;10.85;84.63
59787;BME280;45672;51.612;5.536;2023-03-14T00:53:17;98814.97;;;10.90;84.43
59787;BME280;45672;51.612;5.536;2023-03-14T00:55:43;98809.44;;;10.91;84.59
59787;BME280;45672;51.612;5.536;2023-03-14T00:58:10;98814.56;;;10.93;84.74
59787;BME280;45672;51.612;5.536;2023-03-14T01:00:36;98809.03;;;10.94;85.31
59787;BME280;45672;51.612;5.536;2023-03-14T01:03:02;98802.09;;;10.93;84.42
59787;BME280;45672;51.612;5.536;2023-03-14T01:05:28;98810.88;;;10.94;84.25
59787;BME280;45672;51.612;5.536;2023-03-14T01:07:54;98801.25;;;10.93;84.50
59787;BME280;45672;51.612;5.536;2023-03-14T01:10:19;98798.59;;;10.93;84.42
59787;BME280;45672;51.612;5.536;2023-03-14T01:12:45;98809.44;;;10.91;84.93
59787;BME280;45672;51.612;5.536;2023-03-14T01:15:10;98804.53;;;10.88;84.16
59787;BME280;45672;51.612;5.536;2023-03-14T01:17:36;98794.09;;;10.86;84.05
59787;BME280;45672;51.612;5.536;2023-03-14T01:20:03;98796.56;;;10.88;84.95
59787;BME280;45672;51.612;5.536;2023-03-14T01:22:29;98800.44;;;10.85;85.67
59787;BME280;45672;51.612;5.536;2023-03-14T01:24:55;98788.38;;;10.83;84.98
59787;BME280;45672;51.612;5.536;2023-03-14T01:27:20;98787.56;;;10.82;84.63
59787;BME280;45672;51.612;5.536;2023-03-14T01:29:45;98782.03;;;10.84;84.51
59787;BME280;45672;51.612;5.536;2023-03-14T01:32:12;98783.88;;;10.83;84.00
59787;BME280;45672;51.612;5.536;2023-03-14T01:34:37;98778.56;;;10.83;83.81
59787;BME280;45672;51.612;5.536;2023-03-14T01:37:03;98773.66;;;10.80;83.78
59787;BME280;45672;51.612;5.536;2023-03-14T01:39:28;98777.13;;;10.81;84.46
59787;BME280;45672;51.612;5.536;2023-03-14T01:41:54;98778.16;;;10.80;84.35
59787;BME280;45672;51.612;5.536;2023-03-14T01:44:19;98772.03;;;10.79;83.83
59787;BME280;45672;51.612;5.536;2023-03-14T01:46:45;98759.34;;;10.75;85.07
59787;BME280;45672;51.612;5.536;2023-03-14T01:49:15;98766.31;;;10.69;84.98
59787;BME280;45672;51.612;5.536;2023-03-14T01:52:02;98757.91;;;10.65;85.26
59787;BME280;45672;51.612;5.536;2023-03-14T01:54:49;98753.41;;;10.66;84.92
59787;BME280;45672;51.612;5.536;2023-03-14T01:57:20;98741.16;;;10.65;85.44
59787;BME280;45672;51.612;5.536;2023-03-14T02:00:00;98749.72;;;10.60;86.57
59787;BME280;45672;51.612;5.536;2023-03-14T02:02:27;98750.78;;;10.52;88.23
59787;BME280;45672;51.612;5.536;2023-03-14T02:04:54;98752.03;;;10.43;89.11
59787;BME280;45672;51.612;5.536;2023-03-14T02:07:41;98747.72;;;10.42;89.06
59787;BME280;45672;51.612;5.536;2023-03-14T02:10:11;98748.75;;;10.41;89.22
59787;BME280;45672;51.612;5.536;2023-03-14T02:12:38;98743.22;;;10.43;89.23
59787;BME280;45672;51.612;5.536;2023-03-14T02:15:04;98745.66;;;10.44;88.98
59787;BME280;45672;51.612;5.536;2023-03-14T02:17:30;98747.53;;;10.44;88.63
59787;BME280;45672;51.612;5.536;2023-03-14T02:20:14;98747.53;;;10.50;89.08
59787;BME280;45672;51.612;5.536;2023-03-14T02:22:44;98737.28;;;10.47;90.07
59787;BME280;45672;51.612;5.536;2023-03-14T02:27:47;98753.41;;;10.32;91.62
59787;BME280;45672;51.612;5.536;2023-03-14T02:30:25;98738.69;;;10.30;91.96
59787;BME280;45672;51.612;5.536;2023-03-14T02:32:58;98732.16;;;10.32;90.81
59787;BME280;45672;51.612;5.536;2023-03-14T02:35:29;98740.97;;;10.40;90.70
59787;BME280;45672;51.612;5.536;2023-03-14T02:38:00;98736.25;;;10.42;90.10
59787;BME280;45672;51.612;5.536;2023-03-14T02:40:26;98723.38;;;10.39;90.78
59787;BME280;45672;51.612;5.536;2023-03-14T02:42:52;98724.00;;;10.34;91.09
59787;BME280;45672;51.612;5.536;2023-03-14T02:47:46;98724.81;;;10.28;91.24
59787;BME280;45672;51.612;5.536;2023-03-14T02:50:15;98733.38;;;10.23;91.67
59787;BME280;45672;51.612;5.536;2023-03-14T02:52:43;98731.13;;;10.27;91.68
59787;BME280;45672;51.612;5.536;2023-03-14T02:55:08;98729.72;;;10.31;91.44
59787;BME280;45672;51.612;5.536;2023-03-14T02:57:34;98725.81;;;10.33;91.51
59787;BME280;45672;51.612;5.536;2023-03-14T03:00:01;98728.09;;;10.37;91.67
59787;BME280;45672;51.612;5.536;2023-03-14T03:02:27;98722.16;;;10.34;91.46
59787;BME280;45672;51.612;5.536;2023-03-14T03:04:54;98728.91;;;10.37;91.55
59787;BME280;45672;51.612;5.536;2023-03-14T03:07:19;98728.91;;;10.37;91.19
59787;BME280;45672;51.612;5.536;2023-03-14T03:09:46;98725.22;;;10.38;91.49
59787;BME280;45672;51.612;5.536;2023-03-14T03:12:11;98735.88;;;10.38;91.43
59787;BME280;45672;51.612;5.536;2023-03-14T03:14:36;98733.81;;;10.40;91.56
59787;BME280;45672;51.612;5.536;2023-03-14T03:17:03;98731.97;;;10.41;91.27
59787;BME280;45672;51.612;5.536;2023-03-14T03:19:29;98733.59;;;10.42;91.67
59787;BME280;45672;51.612;5.536;2023-03-14T03:21:54;98736.88;;;10.44;91.44
59787;BME280;45672;51.612;5.536;2023-03-14T03:24:19;98730.13;;;10.41;91.31
59787;BME280;45672;51.612;5.536;2023-03-14T03:26:44;98722.16;;;10.41;91.83
59787;BME280;45672;51.612;5.536;2023-03-14T03:29:10;98716.84;;;10.41;92.07
59787;BME280;45672;51.612;5.536;2023-03-14T03:31:37;98714.19;;;10.41;91.69
59787;BME280;45672;51.612;5.536;2023-03-14T03:34:02;98708.25;;;10.39;91.48
59787;BME280;45672;51.612;5.536;2023-03-14T03:36:28;98720.72;;;10.39;91.70
59787;BME280;45672;51.612;5.536;2023-03-14T03:38:54;98721.78;;;10.38;91.61
59787;BME280;45672;51.612;5.536;2023-03-14T03:41:19;98723.59;;;10.37;91.86
59787;BME280;45672;51.612;5.536;2023-03-14T03:43:44;98707.84;;;10.35;91.95
59787;BME280;45672;51.612;5.536;2023-03-14T03:46:09;98716.03;;;10.34;91.83
59787;BME280;45672;51.612;5.536;2023-03-14T03:48:35;98713.38;;;10.34;91.63
59787;BME280;45672;51.612;5.536;2023-03-14T03:51:01;98693.94;;;10.33;91.43
59787;BME280;45672;51.612;5.536;2023-03-14T03:53:27;98700.09;;;10.34;91.67
59787;BME280;45672;51.612;5.536;2023-03-14T03:55:52;98699.44;;;10.32;91.71
59787;BME280;45672;51.612;5.536;2023-03-14T03:58:17;98710.88;;;10.32;91.38
59787;BME280;45672;51.612;5.536;2023-03-14T04:00:43;98695.16;;;10.31;91.44
59787;BME280;45672;51.612;5.536;2023-03-14T04:03:08;98690.84;;;10.30;91.39
59787;BME280;45672;51.612;5.536;2023-03-14T04:05:33;98687.38;;;10.29;91.64
59787;BME280;45672;51.612;5.536;2023-03-14T04:07:59;98703.53;;;10.28;91.27
59787;BME280;45672;51.612;5.536;2023-03-14T04:10:25;98695.97;;;10.25;91.20
59787;BME280;45672;51.612;5.536;2023-03-14T04:12:50;98695.97;;;10.18;92.00
59787;BME280;45672;51.612;5.536;2023-03-14T04:15:15;98693.91;;;10.20;92.17
59787;BME280;45672;51.612;5.536;2023-03-14T04:17:41;98699.44;;;10.18;93.08
59787;BME280;45672;51.612;5.536;2023-03-14T04:20:07;98694.75;;;10.14;93.81
59787;BME280;45672;51.612;5.536;2023-03-14T04:22:35;98686.97;;;10.06;94.65
59787;BME280;45672;51.612;5.536;2023-03-14T04:25:01;98693.94;;;10.07;95.59
59787;BME280;45672;51.612;5.536;2023-03-14T04:27:28;98689.25;;;10.02;96.24
59787;BME280;45672;51.612;5.536;2023-03-14T04:29:53;98692.28;;;9.99;96.23
59787;BME280;45672;51.612;5.536;2023-03-14T04:32:19;98693.34;;;9.98;96.57
59787;BME280;45672;51.612;5.536;2023-03-14T04:34:44;98699.25;;;10.00;96.22
59787;BME280;45672;51.612;5.536;2023-03-14T04:37:10;98693.94;;;10.00;95.42
59787;BME280;45672;51.612;5.536;2023-03-14T04:39:35;98684.94;;;10.01;95.21
59787;BME280;45672;51.612;5.536;2023-03-14T04:42:00;98691.06;;;10.01;95.73
59787;BME280;45672;51.612;5.536;2023-03-14T04:44:26;98688.41;;;10.01;96.04
59787;BME280;45672;51.612;5.536;2023-03-14T04:46:51;98686.97;;;9.99;96.72
59787;BME280;45672;51.612;5.536;2023-03-14T04:49:16;98679.00;;;9.99;97.37
59787;BME280;45672;51.612;5.536;2023-03-14T04:51:42;98678.41;;;9.97;98.04
59787;BME280;45672;51.612;5.536;2023-03-14T04:54:07;98674.09;;;9.96;99.50
59787;BME280;45672;51.612;5.536;2023-03-14T04:56:33;98684.13;;;9.87;100.00
59787;BME280;45672;51.612;5.536;2023-03-14T04:58:58;98673.09;;;9.83;100.00
59787;BME280;45672;51.612;5.536;2023-03-14T05:01:24;98686.38;;;9.83;100.00
59787;BME280;45672;51.612;5.536;2023-03-14T05:03:49;98684.50;;;9.71;100.00
59787;BME280;45672;51.612;5.536;2023-03-14T05:06:14;98686.94;;;9.52;100.00
59787;BME280;45672;51.612;5.536;2023-03-14T05:08:39;98696.09;;;9.36;100.00
59787;BME280;45672;51.612;5.536;2023-03-14T05:11:05;98693.63;;;9.21;100.00
59787;BME280;45672;51.612;5.536;2023-03-14T05:13:30;98685.00;;;9.12;100.00
59787;BME280;45672;51.612;5.536;2023-03-14T05:16:03;98680.28;;;9.01;100.00
59787;BME280;45672;51.612;5.536;2023-03-14T05:18:29;98681.06;;;8.95;100.00
59787;BME280;45672;51.612;5.536;2023-03-14T05:20:54;98676.56;;;8.89;100.00
59787;BME280;45672;51.612;5.536;2023-03-14T05:23:19;98680.16;;;8.81;100.00
59787;BME280;45672;51.612;5.536;2023-03-14T05:25:45;98674.84;;;8.74;100.00
59787;BME280;45672;51.612;5.536;2023-03-14T05:28:10;98671.16;;;8.69;100.00
59787;BME280;45672;51.612;5.536;2023-03-14T05:30:36;98662.75;;;8.65;100.00
59787;BME280;45672;51.612;5.536;2023-03-14T05:33:01;98666.22;;;8.59;100.00
59787;BME280;45672;51.612;5.536;2023-03-14T05:35:26;98666.59;;;8.56;100.00
59787;BME280;45672;51.612;5.536;2023-03-14T05:37:51;98663.97;;;8.56;100.00
59787;BME280;45672;51.612;5.536;2023-03-14T05:40:17;98668.63;;;8.54;100.00
59787;BME280;45672;51.612;5.536;2023-03-14T05:42:42;98670.88;;;8.57;100.00
59787;BME280;45672;51.612;5.536;2023-03-14T05:45:07;98663.75;;;8.57;100.00
59787;BME280;45672;51.612;5.536;2023-03-14T05:47:33;98655.59;;;8.59;100.00
59787;BME280;45672;51.612;5.536;2023-03-14T05:49:58;98658.25;;;8.59;100.00
59787;BME280;45672;51.612;5.536;2023-03-14T05:52:24;98652.13;;;8.58;100.00
59787;BME280;45672;51.612;5.536;2023-03-14T05:54:49;98647.03;;;8.57;100.00
59787;BME280;45672;51.612;5.536;2023-03-14T05:57:14;98644.75;;;8.54;100.00
59787;BME280;45672;51.612;5.536;2023-03-14T05:59:39;98642.75;;;8.56;100.00
59787;BME280;45672;51.612;5.536;2023-03-14T06:02:05;98638.84;;;8.52;100.00
59787;BME280;45672;51.612;5.536;2023-03-14T06:04:30;98632.16;;;8.56;100.00
59787;BME280;45672;51.612;5.536;2023-03-14T06:06:55;98638.06;;;8.58;100.00
59787;BME280;45672;51.612;5.536;2023-03-14T06:09:21;98633.75;;;8.57;100.00
59787;BME280;45672;51.612;5.536;2023-03-14T06:11:51;98635.41;;;8.58;100.00
59787;BME280;45672;51.612;5.536;2023-03-14T06:14:17;98642.16;;;8.60;100.00
59787;BME280;45672;51.612;5.536;2023-03-14T06:16:42;98638.31;;;8.63;100.00
59787;BME280;45672;51.612;5.536;2023-03-14T06:19:07;98653.81;;;8.66;100.00
59787;BME280;45672;51.612;5.536;2023-03-14T06:21:33;98646.47;;;8.68;100.00
59787;BME280;45672;51.612;5.536;2023-03-14T06:23:58;98647.72;;;8.72;100.00
59787;BME280;45672;51.612;5.536;2023-03-14T06:26:23;98649.16;;;8.75;100.00
59787;BME280;45672;51.612;5.536;2023-03-14T06:28:49;98647.31;;;8.75;100.00
59787;BME280;45672;51.612;5.536;2023-03-14T06:31:16;98647.31;;;8.75;100.00
59787;BME280;45672;51.612;5.536;2023-03-14T06:33:41;98650.78;;;8.76;100.00
59787;BME280;45672;51.612;5.536;2023-03-14T06:36:07;98656.91;;;8.76;100.00
59787;BME280;45672;51.612;5.536;2023-03-14T06:38:32;98656.50;;;8.79;100.00
59787;BME280;45672;51.612;5.536;2023-03-14T06:41:06;98654.69;;;8.80;100.00
59787;BME280;45672;51.612;5.536;2023-03-14T06:43:31;98659.41;;;8.85;100.00
59787;BME280;45672;51.612;5.536;2023-03-14T06:45:56;98657.34;;;8.87;100.00
59787;BME280;45672;51.612;5.536;2023-03-14T06:48:22;98664.28;;;8.88;100.00
59787;BME280;45672;51.612;5.536;2023-03-14T06:50:48;98662.69;;;8.93;100.00
59787;BME280;45672;51.612;5.536;2023-03-14T06:53:14;98664.75;;;8.98;100.00
59787;BME280;45672;51.612;5.536;2023-03-14T06:55:39;98653.56;;;9.03;100.00
59787;BME280;45672;51.612;5.536;2023-03-14T06:58:04;98663.56;;;9.07;100.00
59787;BME280;45672;51.612;5.536;2023-03-14T07:00:32;98663.59;;;9.14;100.00
59787;BME280;45672;51.612;5.536;2023-03-14T07:02:58;98660.34;;;9.19;100.00
59787;BME280;45672;51.612;5.536;2023-03-14T07:05:23;98669.09;;;9.19;100.00
59787;BME280;45672;51.612;5.536;2023-03-14T07:07:48;98670.09;;;9.18;100.00
59787;BME280;45672;51.612;5.536;2023-03-14T07:10:14;98680.72;;;9.18;100.00
59787;BME280;45672;51.612;5.536;2023-03-14T07:12:39;98688.06;;;9.16;100.00
59787;BME280;45672;51.612;5.536;2023-03-14T07:15:04;98683.78;;;9.15;100.00
59787;BME280;45672;51.612;5.536;2023-03-14T07:17:30;98683.16;;;9.13;100.00
59787;BME280;45672;51.612;5.536;2023-03-14T07:19:55;98687.66;;;9.12;100.00
59787;BME280;45672;51.612;5.536;2023-03-14T07:22:20;98692.34;;;9.10;100.00
59787;BME280;45672;51.612;5.536;2023-03-14T07:24:46;98690.91;;;9.08;100.00
59787;BME280;45672;51.612;5.536;2023-03-14T07:27:11;98754.38;;;9.09;100.00
59787;BME280;45672;51.612;5.536;2023-03-14T07:29:36;98784.94;;;9.05;100.00
59787;BME280;45672;51.612;5.536;2023-03-14T07:32:02;98791.13;;;8.77;100.00
59787;BME280;45672;51.612;5.536;2023-03-14T07:34:28;98798.69;;;8.52;100.00
59787;BME280;45672;51.612;5.536;2023-03-14T07:36:53;98810.09;;;8.31;100.00
59787;BME280;45672;51.612;5.536;2023-03-14T07:39:18;98823.31;;;8.24;100.00
59787;BME280;45672;51.612;5.536;2023-03-14T07:41:44;98828.53;;;8.18;100.00
59787;BME280;45672;51.612;5.536;2023-03-14T07:44:09;98835.84;;;8.16;100.00
59787;BME280;45672;51.612;5.536;2023-03-14T07:46:34;98846.59;;;8.07;100.00
59787;BME280;45672;51.612;5.536;2023-03-14T07:48:59;98853.81;;;7.99;100.00
59787;BME280;45672;51.612;5.536;2023-03-14T07:51:25;98862.78;;;7.98;100.00
59787;BME280;45672;51.612;5.536;2023-03-14T07:53:50;98876.41;;;7.94;100.00
59787;BME280;45672;51.612;5.536;2023-03-14T07:56:15;98881.13;;;7.84;100.00
59787;BME280;45672;51.612;5.536;2023-03-14T07:58:41;98888.00;;;7.79;100.00
59787;BME280;45672;51.612;5.536;2023-03-14T08:01:06;98884.34;;;7.80;100.00
59787;BME280;45672;51.612;5.536;2023-03-14T08:03:32;98906.91;;;7.75;100.00
59787;BME280;45672;51.612;5.536;2023-03-14T08:05:57;98912.56;;;7.72;100.00
59787;BME280;45672;51.612;5.536;2023-03-14T08:08:22;98910.66;;;7.66;100.00
59787;BME280;45672;51.612;5.536;2023-03-14T08:10:48;98917.59;;;7.67;100.00
59787;BME280;45672;51.612;5.536;2023-03-14T08:13:13;98930.28;;;7.72;100.00
59787;BME280;45672;51.612;5.536;2023-03-14T08:15:39;98938.56;;;7.69;100.00
59787;BME280;45672;51.612;5.536;2023-03-14T08:18:05;98952.56;;;7.63;100.00
59787;BME280;45672;51.612;5.536;2023-03-14T08:20:30;98969.25;;;7.63;100.00
59787;BME280;45672;51.612;5.536;2023-03-14T08:22:57;98967.06;;;7.67;100.00
59787;BME280;45672;51.612;5.536;2023-03-14T08:25:23;98974.19;;;7.66;100.00
59787;BME280;45672;51.612;5.536;2023-03-14T08:27:48;98983.31;;;7.79;100.00
59787;BME280;45672;51.612;5.536;2023-03-14T08:30:15;99000.94;;;7.86;100.00
59787;BME280;45672;51.612;5.536;2023-03-14T08:32:41;99001.38;;;7.90;100.00
59787;BME280;45672;51.612;5.536;2023-03-14T08:35:07;99009.53;;;8.03;100.00
59787;BME280;45672;51.612;5.536;2023-03-14T08:37:34;99023.75;;;8.02;100.00
59787;BME280;45672;51.612;5.536;2023-03-14T08:39:59;99024.84;;;8.08;100.00
59787;BME280;45672;51.612;5.536;2023-03-14T08:42:25;99029.25;;;8.01;100.00
59787;BME280;45672;51.612;5.536;2023-03-14T08:44:51;99037.47;;;7.91;100.00
59787;BME280;45672;51.612;5.536;2023-03-14T08:47:16;99055.53;;;7.87;100.00
59787;BME280;45672;51.612;5.536;2023-03-14T08:49:42;99057.53;;;7.85;100.00
59787;BME280;45672;51.612;5.536;2023-03-14T08:52:07;99054.97;;;7.77;100.00
59787;BME280;45672;51.612;5.536;2023-03-14T08:54:32;99069.22;;;7.76;100.00
59787;BME280;45672;51.612;5.536;2023-03-14T08:56:58;99081.69;;;7.67;100.00
59787;BME280;45672;51.612;5.536;2023-03-14T08:59:24;99093.03;;;7.61;100.00
59787;BME280;45672;51.612;5.536;2023-03-14T09:01:50;99108.41;;;7.57;100.00
59787;BME280;45672;51.612;5.536;2023-03-14T09:04:15;99108.91;;;7.61;100.00
59787;BME280;45672;51.612;5.536;2023-03-14T09:06:41;99111.25;;;7.56;100.00
59787;BME280;45672;51.612;5.536;2023-03-14T09:09:07;99127.97;;;7.56;100.00
59787;BME280;45672;51.612;5.536;2023-03-14T09:11:33;99135.59;;;7.51;100.00
59787;BME280;45672;51.612;5.536;2023-03-14T09:13:58;99145.56;;;7.49;100.00
59787;BME280;45672;51.612;5.536;2023-03-14T09:16:24;99160.31;;;7.44;100.00
59787;BME280;45672;51.612;5.536;2023-03-14T09:18:49;99163.06;;;7.50;100.00
59787;BME280;45672;51.612;5.536;2023-03-14T09:21:14;99167.13;;;7.61;100.00
59787;BME280;45672;51.612;5.536;2023-03-14T09:23:40;99183.31;;;7.66;100.00
59787;BME280;45672;51.612;5.536;2023-03-14T09:26:06;99203.88;;;7.56;100.00
59787;BME280;45672;51.612;5.536;2023-03-14T09:28:31;99211.38;;;7.52;100.00
59787;BME280;45672;51.612;5.536;2023-03-14T09:30:57;99230.69;;;7.53;100.00
59787;BME280;45672;51.612;5.536;2023-03-14T09:33:23;99252.19;;;7.27;100.00
59787;BME280;45672;51.612;5.536;2023-03-14T09:35:48;99256.72;;;7.10;100.00
59787;BME280;45672;51.612;5.536;2023-03-14T09:38:13;99263.34;;;7.05;100.00
59787;BME280;45672;51.612;5.536;2023-03-14T09:40:39;99284.81;;;7.11;100.00
59787;BME280;45672;51.612;5.536;2023-03-14T09:43:05;99297.53;;;7.15;100.00
59787;BME280;45672;51.612;5.536;2023-03-14T09:45:36;99309.81;;;7.00;100.00
59787;BME280;45672;51.612;5.536;2023-03-14T09:48:04;99313.94;;;7.02;100.00
59787;BME280;45672;51.612;5.536;2023-03-14T09:50:38;99320.97;;;7.35;100.00
59787;BME280;45672;51.612;5.536;2023-03-14T09:53:11;99332.59;;;7.57;100.00
59787;BME280;45672;51.612;5.536;2023-03-14T09:55:39;99357.00;;;7.67;100.00
59787;BME280;45672;51.612;5.536;2023-03-14T09:58:11;99365.13;;;7.97;100.00
59787;BME280;45672;51.612;5.536;2023-03-14T10:00:37;99374.00;;;8.36;100.00
59787;BME280;45672;51.612;5.536;2023-03-14T10:05:36;99398.31;;;8.16;100.00
59787;BME280;45672;51.612;5.536;2023-03-14T10:08:02;99415.41;;;8.05;100.00
59787;BME280;45672;51.612;5.536;2023-03-14T10:10:27;99419.00;;;8.13;100.00
59787;BME280;45672;51.612;5.536;2023-03-14T10:12:56;99435.75;;;8.44;100.00
59787;BME280;45672;51.612;5.536;2023-03-14T10:15:29;99447.31;;;8.43;100.00
59787;BME280;45672;51.612;5.536;2023-03-14T10:17:54;99455.03;;;8.30;100.00
59787;BME280;45672;51.612;5.536;2023-03-14T10:23:26;99486.00;;;8.29;100.00
59787;BME280;45672;51.612;5.536;2023-03-14T10:26:05;99493.88;;;8.15;100.00
59787;BME280;45672;51.612;5.536;2023-03-14T10:28:40;99526.31;;;8.08;100.00
59787;BME280;45672;51.612;5.536;2023-03-14T10:31:07;99522.16;;;8.14;97.39
59787;BME280;45672;51.612;5.536;2023-03-14T10:33:35;99537.66;;;7.86;97.00
59787;BME280;45672;51.612;5.536;2023-03-14T10:36:23;99542.47;;;7.74;99.72
59787;BME280;45672;51.612;5.536;2023-03-14T10:38:57;99563.16;;;7.79;99.99
59787;BME280;45672;51.612;5.536;2023-03-14T10:41:31;99564.34;;;7.68;100.00
59787;BME280;45672;51.612;5.536;2023-03-14T10:43:59;99570.28;;;7.78;100.00
59787;BME280;45672;51.612;5.536;2023-03-14T10:46:29;99575.03;;;8.07;97.42
59787;BME280;45672;51.612;5.536;2023-03-14T10:48:56;99579.91;;;8.27;91.76
59787;BME280;45672;51.612;5.536;2023-03-14T10:51:27;99583.47;;;8.59;93.44
59787;BME280;45672;51.612;5.536;2023-03-14T10:54:19;99601.66;;;8.62;91.97
59787;BME280;45672;51.612;5.536;2023-03-14T10:56:58;99611.00;;;8.81;90.06
59787;BME280;45672;51.612;5.536;2023-03-14T10:59:27;99623.41;;;8.89;88.20
59787;BME280;45672;51.612;5.536;2023-03-14T11:09:51;99655.47;;;9.34;86.36
59787;BME280;45672;51.612;5.536;2023-03-14T11:21:18;99717.09;;;8.81;92.68
59787;BME280;45672;51.612;5.536;2023-03-14T11:28:57;99749.00;;;7.74;93.86
59787;BME280;45672;51.612;5.536;2023-03-14T11:31:26;99759.25;;;7.61;94.14
59787;BME280;45672;51.612;5.536;2023-03-14T11:37:06;99762.91;;;7.76;95.44
59787;BME280;45672;51.612;5.536;2023-03-14T11:39:41;99775.13;;;7.69;91.05
59787;BME280;45672;51.612;5.536;2023-03-14T11:42:11;99780.31;;;7.70;92.05
59787;BME280;45672;51.612;5.536;2023-03-14T11:44:40;99786.06;;;7.66;92.80
59787;BME280;45672;51.612;5.536;2023-03-14T11:47:10;99796.03;;;7.97;93.00
59787;BME280;45672;51.612;5.536;2023-03-14T11:55:05;99804.81;;;8.79;88.06
59787;BME280;45672;51.612;5.536;2023-03-14T11:57:32;99820.72;;;8.88;85.94
59787;BME280;45672;51.612;5.536;2023-03-14T12:00:04;99837.31;;;8.82;87.90
59787;BME280;45672;51.612;5.536;2023-03-14T12:02:48;99860.50;;;8.22;91.73
59787;BME280;45672;51.612;5.536;2023-03-14T12:11:00;99859.97;;;7.16;99.14
59787;BME280;45672;51.612;5.536;2023-03-14T12:13:29;99870.00;;;7.31;96.45
59787;BME280;45672;51.612;5.536;2023-03-14T12:15:59;99871.34;;;7.43;96.48
59787;BME280;45672;51.612;5.536;2023-03-14T12:18:29;99872.72;;;7.55;94.48
59787;BME280;45672;51.612;5.536;2023-03-14T12:21:07;99887.81;;;7.63;94.95
59787;BME280;45672;51.612;5.536;2023-03-14T12:23:51;99895.97;;;7.78;94.73
59787;BME280;45672;51.612;5.536;2023-03-14T12:26:22;99887.81;;;8.06;96.68
59787;BME280;45672;51.612;5.536;2023-03-14T12:29:09;99888.31;;;8.18;91.76
59787;BME280;45672;51.612;5.536;2023-03-14T12:31:46;99896.91;;;8.20;90.95
59787;BME280;45672;51.612;5.536;2023-03-14T12:42:10;99918.25;;;8.10;89.32
59787;BME280;45672;51.612;5.536;2023-03-14T12:49:44;99913.97;;;8.25;86.88
59787;BME280;45672;51.612;5.536;2023-03-14T12:52:21;99927.75;;;8.29;85.47
59787;BME280;45672;51.612;5.536;2023-03-14T12:55:10;99941.03;;;8.37;84.67
59787;BME280;45672;51.612;5.536;2023-03-14T12:58:17;99942.88;;;8.45;80.72
59787;BME280;45672;51.612;5.536;2023-03-14T13:00:59;99948.69;;;8.49;74.23
59787;BME280;45672;51.612;5.536;2023-03-14T13:03:36;99954.94;;;8.39;71.48
59787;BME280;45672;51.612;5.536;2023-03-14T13:06:03;99961.22;;;8.30;78.26
59787;BME280;45672;51.612;5.536;2023-03-14T13:08:42;99966.50;;;8.22;74.74
59787;BME280;45672;51.612;5.536;2023-03-14T13:11:10;99968.63;;;8.18;77.87
59787;BME280;45672;51.612;5.536;2023-03-14T13:13:42;99984.97;;;8.05;74.03
59787;BME280;45672;51.612;5.536;2023-03-14T13:16:14;99986.94;;;7.95;74.54
59787;BME280;45672;51.612;5.536;2023-03-14T13:18:42;99995.66;;;7.87;73.90
59787;BME280;45672;51.612;5.536;2023-03-14T13:21:22;99988.06;;;7.92;74.68
59787;BME280;45672;51.612;5.536;2023-03-14T13:23:58;100007.97;;;7.97;69.78
59787;BME280;45672;51.612;5.536;2023-03-14T13:26:32;100020.25;;;8.06;69.07
59787;BME280;45672;51.612;5.536;2023-03-14T13:28:59;100023.91;;;8.05;64.00
59787;BME280;45672;51.612;5.536;2023-03-14T13:31:26;100027.88;;;8.09;64.46
59787;BME280;45672;51.612;5.536;2023-03-14T13:34:02;100033.06;;;8.19;66.19
59787;BME280;45672;51.612;5.536;2023-03-14T13:36:29;100040.69;;;8.22;65.68
59787;BME280;45672;51.612;5.536;2023-03-14T13:38:59;100034.06;;;8.18;64.13
59787;BME280;45672;51.612;5.536;2023-03-14T13:41:27;100038.69;;;8.24;63.05
59787;BME280;45672;51.612;5.536;2023-03-14T13:44:00;100046.69;;;8.32;65.59
59787;BME280;45672;51.612;5.536;2023-03-14T13:46:27;100055.47;;;8.33;59.15
59787;BME280;45672;51.612;5.536;2023-03-14T13:49:02;100050.84;;;8.35;60.42
59787;BME280;45672;51.612;5.536;2023-03-14T13:51:28;100053.63;;;8.25;62.79
59787;BME280;45672;51.612;5.536;2023-03-14T13:53:57;100070.00;;;8.20;64.72
59787;BME280;45672;51.612;5.536;2023-03-14T13:56:27;100078.78;;;8.21;63.57
59787;BME280;45672;51.612;5.536;2023-03-14T13:58:52;100085.44;;;8.25;61.39
59787;BME280;45672;51.612;5.536;2023-03-14T14:01:33;100085.81;;;8.38;58.16
59787;BME280;45672;51.612;5.536;2023-03-14T14:04:17;100080.94;;;8.52;61.93
59787;BME280;45672;51.612;5.536;2023-03-14T14:06:54;100097.25;;;8.39;62.61